Pagrindinis puslapis
METAR-TAF:

METAR-TAF

Oro uostai :

Longjyrbienas, Norvegija

platuma: 78-15N, ilguma: 015-28E, Aukštis: 2 m

Dabartinis oras

Ataskaita buvo paskelbta 11 minutes, ne 11:20 UTC
Vėjas 4 kt iš Šiaurės
Temperatūra 5°C
Drėgmė 70%
Slėgis 1016 hPa
Matomumas 10 km arba daugiau
Mažai debesys ne aukštis 3000 ft
Su prošvaistėmis ne aukštis 19000 ft

METAR: ENSB 221120Z 35004KT 9999 FEW030 BKN190 05/M00 Q1016 NOSIG RMK WIND 1400FT 00000KT

Laikas: 13:31 (11:31 UTC)

Prognozė

Prognozė galioja nuo 22 metu 06 UTC su 23 metu 06 UTC
Vėjas 5 kt iš Pietvakarių
Matomumas 10 km arba daugiau
Išsisklaidę debesys ne aukštis 2000 ft
Tikimybė 30% :
Laikinai
nuo 22 metu 09 UTC su 22 metu 24 UTC
Su prošvaistėmis ne aukštis 1400 ft

TAF: ENSB 2206/2306 23005KT 9999 SCT020 PROB30 TEMPO 2209/2224 BKN014

Orai ataskaitas ir orų prognozės (METAR, TAF).

turimą stotys yra geltonos ir raudonos taškus žemėlapyje.

Perkelti pele per norėdami pamatyti stoties vardą.

Tada spustelėkite, norėdami matyti oro stebėjimo ir prognozės.

Norėdami pakeisti žemėlapį: spustelėkite ant žalios mygtukų su juodo kryžiaus žemyn,; žalią mygtuką su brūkšneliu, jei norite nutolinti; arba žalių rodyklių gretimoms žemėlapius.


METAR-TAF: